sensor_id;sensor_type;location;lat;lon;timestamp;temperature;humidity
53274;DHT22;39163;52.696;6.758;2022-07-29T00:02:15;15.50;99.90
53274;DHT22;39163;52.696;6.758;2022-07-29T00:08:45;15.40;99.90
53274;DHT22;39163;52.696;6.758;2022-07-29T00:11:31;15.40;99.90
53274;DHT22;39163;52.696;6.758;2022-07-29T00:14:39;15.40;99.90
53274;DHT22;39163;52.696;6.758;2022-07-29T00:48:33;15.30;99.90
53274;DHT22;39163;52.696;6.758;2022-07-29T00:51:08;15.30;99.90
53274;DHT22;39163;52.696;6.758;2022-07-29T00:54:08;15.30;99.90
53274;DHT22;39163;52.696;6.758;2022-07-29T01:08:19;15.20;99.90
53274;DHT22;39163;52.696;6.758;2022-07-29T01:11:21;15.20;99.90
53274;DHT22;39163;52.696;6.758;2022-07-29T01:14:45;15.20;99.90
53274;DHT22;39163;52.696;6.758;2022-07-29T04:51:54;15.00;99.90
53274;DHT22;39163;52.696;6.758;2022-07-29T05:07:21;15.30;99.90
53274;DHT22;39163;52.696;6.758;2022-07-29T05:09:49;15.40;99.90
53274;DHT22;39163;52.696;6.758;2022-07-29T05:12:41;15.50;99.90
53274;DHT22;39163;52.696;6.758;2022-07-29T05:15:27;15.50;99.90
53274;DHT22;39163;52.696;6.758;2022-07-29T05:18:03;15.70;99.90
53274;DHT22;39163;52.696;6.758;2022-07-29T05:20:54;15.80;99.90
53274;DHT22;39163;52.696;6.758;2022-07-29T05:23:32;15.90;99.90
53274;DHT22;39163;52.696;6.758;2022-07-29T05:26:44;16.00;99.90
53274;DHT22;39163;52.696;6.758;2022-07-29T05:29:30;16.10;99.90
53274;DHT22;39163;52.696;6.758;2022-07-29T05:34:44;16.20;99.90
53274;DHT22;39163;52.696;6.758;2022-07-29T05:37:38;16.30;99.90
53274;DHT22;39163;52.696;6.758;2022-07-29T05:40:15;16.20;99.90
53274;DHT22;39163;52.696;6.758;2022-07-29T05:42:41;16.20;99.90
53274;DHT22;39163;52.696;6.758;2022-07-29T05:45:15;16.30;99.90
53274;DHT22;39163;52.696;6.758;2022-07-29T05:47:44;16.40;99.90
53274;DHT22;39163;52.696;6.758;2022-07-29T06:00:42;16.80;99.90
53274;DHT22;39163;52.696;6.758;2022-07-29T06:03:10;17.00;99.90
53274;DHT22;39163;52.696;6.758;2022-07-29T07:00:06;19.60;99.90
53274;DHT22;39163;52.696;6.758;2022-07-29T07:03:05;19.50;99.90
53274;DHT22;39163;52.696;6.758;2022-07-29T07:05:40;19.30;99.90
53274;DHT22;39163;52.696;6.758;2022-07-29T07:08:17;19.20;99.90
53274;DHT22;39163;52.696;6.758;2022-07-29T07:11:18;19.20;99.90
53274;DHT22;39163;52.696;6.758;2022-07-29T07:13:46;19.30;99.90
53274;DHT22;39163;52.696;6.758;2022-07-29T07:16:43;19.40;99.90
53274;DHT22;39163;52.696;6.758;2022-07-29T07:19:21;19.60;99.90
53274;DHT22;39163;52.696;6.758;2022-07-29T08:17:16;19.70;99.90
53274;DHT22;39163;52.696;6.758;2022-07-29T08:19:53;19.70;99.90
53274;DHT22;39163;52.696;6.758;2022-07-29T08:22:27;19.70;99.90
53274;DHT22;39163;52.696;6.758;2022-07-29T08:24:56;19.90;99.90
53274;DHT22;39163;52.696;6.758;2022-07-29T08:27:24;19.90;99.90
53274;DHT22;39163;52.696;6.758;2022-07-29T08:29:51;20.00;99.90
53274;DHT22;39163;52.696;6.758;2022-07-29T08:32:40;20.10;99.90
53274;DHT22;39163;52.696;6.758;2022-07-29T08:35:19;20.10;99.90
53274;DHT22;39163;52.696;6.758;2022-07-29T08:38:34;20.10;99.90
53274;DHT22;39163;52.696;6.758;2022-07-29T08:41:29;20.30;99.90
53274;DHT22;39163;52.696;6.758;2022-07-29T08:44:00;20.30;99.90
53274;DHT22;39163;52.696;6.758;2022-07-29T08:46:39;20.40;99.90
53274;DHT22;39163;52.696;6.758;2022-07-29T08:49:18;20.30;99.90
53274;DHT22;39163;52.696;6.758;2022-07-29T08:52:28;20.30;99.90
53274;DHT22;39163;52.696;6.758;2022-07-29T08:55:08;20.20;99.90
53274;DHT22;39163;52.696;6.758;2022-07-29T08:58:04;20.10;99.90
53274;DHT22;39163;52.696;6.758;2022-07-29T09:00:55;20.10;99.90
53274;DHT22;39163;52.696;6.758;2022-07-29T09:03:41;20.10;99.90
53274;DHT22;39163;52.696;6.758;2022-07-29T09:06:09;20.00;99.90
53274;DHT22;39163;52.696;6.758;2022-07-29T09:08:55;20.00;99.90
53274;DHT22;39163;52.696;6.758;2022-07-29T09:11:29;20.00;99.90
53274;DHT22;39163;52.696;6.758;2022-07-29T09:14:29;20.10;99.90
53274;DHT22;39163;52.696;6.758;2022-07-29T09:17:50;20.10;99.90
53274;DHT22;39163;52.696;6.758;2022-07-29T09:23:39;20.20;99.90
53274;DHT22;39163;52.696;6.758;2022-07-29T09:26:21;20.20;99.90
53274;DHT22;39163;52.696;6.758;2022-07-29T09:29:07;20.30;99.90
53274;DHT22;39163;52.696;6.758;2022-07-29T09:31:36;20.40;99.90
53274;DHT22;39163;52.696;6.758;2022-07-29T09:34:12;20.50;99.90
53274;DHT22;39163;52.696;6.758;2022-07-29T09:40:31;20.50;99.90
53274;DHT22;39163;52.696;6.758;2022-07-29T09:43:15;20.70;99.90
53274;DHT22;39163;52.696;6.758;2022-07-29T10:52:55;21.50;99.90
53274;DHT22;39163;52.696;6.758;2022-07-29T10:55:40;21.50;99.90
53274;DHT22;39163;52.696;6.758;2022-07-29T11:09:17;21.60;99.90
53274;DHT22;39163;52.696;6.758;2022-07-29T11:15:26;21.80;99.90
53274;DHT22;39163;52.696;6.758;2022-07-29T11:23:26;22.00;99.90
53274;DHT22;39163;52.696;6.758;2022-07-29T11:26:18;22.00;99.90
53274;DHT22;39163;52.696;6.758;2022-07-29T11:31:35;22.10;99.90
53274;DHT22;39163;52.696;6.758;2022-07-29T11:34:28;22.10;99.90
53274;DHT22;39163;52.696;6.758;2022-07-29T11:39:46;22.20;99.90
53274;DHT22;39163;52.696;6.758;2022-07-29T11:45:08;22.20;99.90
53274;DHT22;39163;52.696;6.758;2022-07-29T11:47:39;22.30;99.90
53274;DHT22;39163;52.696;6.758;2022-07-29T11:53:10;22.20;99.90
53274;DHT22;39163;52.696;6.758;2022-07-29T11:55:43;22.20;99.90
53274;DHT22;39163;52.696;6.758;2022-07-29T11:58:20;22.20;99.90
53274;DHT22;39163;52.696;6.758;2022-07-29T12:01:03;22.20;99.90
53274;DHT22;39163;52.696;6.758;2022-07-29T12:06:17;22.40;99.90
53274;DHT22;39163;52.696;6.758;2022-07-29T12:08:44;22.50;99.90
53274;DHT22;39163;52.696;6.758;2022-07-29T12:11:19;22.60;99.90
53274;DHT22;39163;52.696;6.758;2022-07-29T12:13:46;22.60;99.90
53274;DHT22;39163;52.696;6.758;2022-07-29T12:16:33;22.70;99.90
53274;DHT22;39163;52.696;6.758;2022-07-29T12:19:00;22.80;99.90
53274;DHT22;39163;52.696;6.758;2022-07-29T12:21:28;23.00;99.90
53274;DHT22;39163;52.696;6.758;2022-07-29T12:23:55;23.10;99.90
53274;DHT22;39163;52.696;6.758;2022-07-29T12:26:21;23.30;99.90
53274;DHT22;39163;52.696;6.758;2022-07-29T12:28:48;23.40;99.90
53274;DHT22;39163;52.696;6.758;2022-07-29T12:31:17;23.50;99.90
53274;DHT22;39163;52.696;6.758;2022-07-29T12:33:42;23.60;99.90
53274;DHT22;39163;52.696;6.758;2022-07-29T12:36:16;23.70;99.80
53274;DHT22;39163;52.696;6.758;2022-07-29T12:38:42;23.80;99.40
53274;DHT22;39163;52.696;6.758;2022-07-29T12:41:09;23.80;99.10
53274;DHT22;39163;52.696;6.758;2022-07-29T12:43:35;23.90;99.20
53274;DHT22;39163;52.696;6.758;2022-07-29T12:46:12;23.80;98.90
53274;DHT22;39163;52.696;6.758;2022-07-29T12:48:42;23.90;99.00
53274;DHT22;39163;52.696;6.758;2022-07-29T12:51:09;23.90;99.00
53274;DHT22;39163;52.696;6.758;2022-07-29T12:53:37;24.00;98.70
53274;DHT22;39163;52.696;6.758;2022-07-29T12:56:04;24.10;98.70
53274;DHT22;39163;52.696;6.758;2022-07-29T13:06:37;24.30;98.20
53274;DHT22;39163;52.696;6.758;2022-07-29T13:11:34;24.50;98.00
53274;DHT22;39163;52.696;6.758;2022-07-29T13:14:00;24.60;97.90
53274;DHT22;39163;52.696;6.758;2022-07-29T13:16:26;24.60;98.50
53274;DHT22;39163;52.696;6.758;2022-07-29T13:19:05;24.70;98.10
53274;DHT22;39163;52.696;6.758;2022-07-29T13:21:32;24.70;98.10
53274;DHT22;39163;52.696;6.758;2022-07-29T13:23:57;24.80;98.10
53274;DHT22;39163;52.696;6.758;2022-07-29T13:26:23;24.90;98.40
53274;DHT22;39163;52.696;6.758;2022-07-29T13:28:49;24.90;98.10
53274;DHT22;39163;52.696;6.758;2022-07-29T13:31:15;24.90;98.00
53274;DHT22;39163;52.696;6.758;2022-07-29T13:33:41;25.20;98.50
53274;DHT22;39163;52.696;6.758;2022-07-29T13:36:09;25.50;98.50
53274;DHT22;39163;52.696;6.758;2022-07-29T13:38:38;25.60;97.90
53274;DHT22;39163;52.696;6.758;2022-07-29T13:41:04;25.50;98.30
53274;DHT22;39163;52.696;6.758;2022-07-29T13:43:30;25.40;97.90
53274;DHT22;39163;52.696;6.758;2022-07-29T13:45:55;25.50;97.70
53274;DHT22;39163;52.696;6.758;2022-07-29T13:48:33;25.60;97.70
53274;DHT22;39163;52.696;6.758;2022-07-29T13:50:59;25.70;96.40
53274;DHT22;39163;52.696;6.758;2022-07-29T13:53:25;25.80;96.90
53274;DHT22;39163;52.696;6.758;2022-07-29T13:55:51;25.80;97.10
53274;DHT22;39163;52.696;6.758;2022-07-29T13:58:16;25.80;96.60
53274;DHT22;39163;52.696;6.758;2022-07-29T14:00:42;25.70;96.60
53274;DHT22;39163;52.696;6.758;2022-07-29T14:03:23;25.60;96.80
53274;DHT22;39163;52.696;6.758;2022-07-29T14:05:50;25.50;96.50
53274;DHT22;39163;52.696;6.758;2022-07-29T14:08:25;25.40;96.90
53274;DHT22;39163;52.696;6.758;2022-07-29T14:10:50;25.40;97.00
53274;DHT22;39163;52.696;6.758;2022-07-29T14:13:22;25.30;96.70
53274;DHT22;39163;52.696;6.758;2022-07-29T14:15:51;25.20;96.60
53274;DHT22;39163;52.696;6.758;2022-07-29T14:18:17;25.20;96.80
53274;DHT22;39163;52.696;6.758;2022-07-29T14:20:43;25.30;97.20
53274;DHT22;39163;52.696;6.758;2022-07-29T14:23:08;25.20;97.10
53274;DHT22;39163;52.696;6.758;2022-07-29T14:25:34;25.30;97.30
53274;DHT22;39163;52.696;6.758;2022-07-29T14:28:03;25.30;97.40
53274;DHT22;39163;52.696;6.758;2022-07-29T14:30:28;25.30;97.20
53274;DHT22;39163;52.696;6.758;2022-07-29T14:32:54;25.40;96.80
53274;DHT22;39163;52.696;6.758;2022-07-29T14:35:20;25.70;97.10
53274;DHT22;39163;52.696;6.758;2022-07-29T14:37:45;26.10;96.60
53274;DHT22;39163;52.696;6.758;2022-07-29T14:40:11;26.30;96.00
53274;DHT22;39163;52.696;6.758;2022-07-29T14:42:37;26.70;96.60
53274;DHT22;39163;52.696;6.758;2022-07-29T14:45:08;27.10;96.40
53274;DHT22;39163;52.696;6.758;2022-07-29T14:47:34;27.40;95.40
53274;DHT22;39163;52.696;6.758;2022-07-29T14:50:00;27.50;95.00
53274;DHT22;39163;52.696;6.758;2022-07-29T14:52:26;27.40;94.40
53274;DHT22;39163;52.696;6.758;2022-07-29T14:54:52;27.30;94.80
53274;DHT22;39163;52.696;6.758;2022-07-29T14:57:17;27.30;94.40
53274;DHT22;39163;52.696;6.758;2022-07-29T14:59:43;27.20;94.40
53274;DHT22;39163;52.696;6.758;2022-07-29T15:02:09;27.00;93.00
53274;DHT22;39163;52.696;6.758;2022-07-29T15:04:35;26.90;94.90
53274;DHT22;39163;52.696;6.758;2022-07-29T15:07:00;26.70;94.70
53274;DHT22;39163;52.696;6.758;2022-07-29T15:09:32;26.70;95.00
53274;DHT22;39163;52.696;6.758;2022-07-29T15:11:58;26.60;94.20
53274;DHT22;39163;52.696;6.758;2022-07-29T15:14:24;26.60;94.80
53274;DHT22;39163;52.696;6.758;2022-07-29T15:16:49;26.60;94.80
53274;DHT22;39163;52.696;6.758;2022-07-29T15:19:18;26.60;94.40
53274;DHT22;39163;52.696;6.758;2022-07-29T15:21:43;26.60;94.30
53274;DHT22;39163;52.696;6.758;2022-07-29T15:24:09;26.60;94.50
53274;DHT22;39163;52.696;6.758;2022-07-29T15:26:35;26.80;94.90
53274;DHT22;39163;52.696;6.758;2022-07-29T15:29:00;26.80;94.80
53274;DHT22;39163;52.696;6.758;2022-07-29T15:31:26;26.70;94.40
53274;DHT22;39163;52.696;6.758;2022-07-29T15:33:52;26.80;94.50
53274;DHT22;39163;52.696;6.758;2022-07-29T15:36:17;26.90;94.50
53274;DHT22;39163;52.696;6.758;2022-07-29T15:38:43;27.00;94.70
53274;DHT22;39163;52.696;6.758;2022-07-29T15:41:13;27.20;94.60
53274;DHT22;39163;52.696;6.758;2022-07-29T15:43:43;27.20;94.30
53274;DHT22;39163;52.696;6.758;2022-07-29T15:46:16;27.20;94.20
53274;DHT22;39163;52.696;6.758;2022-07-29T15:49:02;27.00;94.10
53274;DHT22;39163;52.696;6.758;2022-07-29T15:51:28;26.80;94.30
53274;DHT22;39163;52.696;6.758;2022-07-29T15:53:54;26.60;94.20
53274;DHT22;39163;52.696;6.758;2022-07-29T15:56:20;26.40;94.30
53274;DHT22;39163;52.696;6.758;2022-07-29T15:58:45;26.30;94.40
53274;DHT22;39163;52.696;6.758;2022-07-29T16:01:11;26.20;94.30
53274;DHT22;39163;52.696;6.758;2022-07-29T16:03:37;26.10;94.60
53274;DHT22;39163;52.696;6.758;2022-07-29T16:06:03;26.20;94.60
53274;DHT22;39163;52.696;6.758;2022-07-29T16:08:29;26.30;94.20
53274;DHT22;39163;52.696;6.758;2022-07-29T16:10:55;26.50;94.30
53274;DHT22;39163;52.696;6.758;2022-07-29T16:13:21;26.60;94.20
53274;DHT22;39163;52.696;6.758;2022-07-29T16:15:46;26.60;94.10
53274;DHT22;39163;52.696;6.758;2022-07-29T16:18:12;26.80;93.90
53274;DHT22;39163;52.696;6.758;2022-07-29T16:20:39;26.80;93.90
53274;DHT22;39163;52.696;6.758;2022-07-29T16:23:05;26.90;93.60
53274;DHT22;39163;52.696;6.758;2022-07-29T16:25:34;26.90;93.90
53274;DHT22;39163;52.696;6.758;2022-07-29T16:28:00;27.00;93.80
53274;DHT22;39163;52.696;6.758;2022-07-29T16:30:26;27.00;93.00
53274;DHT22;39163;52.696;6.758;2022-07-29T16:35:27;27.00;93.20
53274;DHT22;39163;52.696;6.758;2022-07-29T16:37:56;27.00;93.20
53274;DHT22;39163;52.696;6.758;2022-07-29T16:40:24;27.00;92.70
53274;DHT22;39163;52.696;6.758;2022-07-29T16:42:50;27.10;92.90
53274;DHT22;39163;52.696;6.758;2022-07-29T16:45:16;27.10;93.10
53274;DHT22;39163;52.696;6.758;2022-07-29T16:47:42;27.00;92.70
53274;DHT22;39163;52.696;6.758;2022-07-29T16:50:08;26.90;92.30
53274;DHT22;39163;52.696;6.758;2022-07-29T16:52:34;26.80;92.50
53274;DHT22;39163;52.696;6.758;2022-07-29T16:55:00;26.80;92.90
53274;DHT22;39163;52.696;6.758;2022-07-29T16:57:26;26.70;92.70
53274;DHT22;39163;52.696;6.758;2022-07-29T16:59:51;26.70;92.60
53274;DHT22;39163;52.696;6.758;2022-07-29T17:02:18;26.70;92.70
53274;DHT22;39163;52.696;6.758;2022-07-29T17:04:44;26.70;92.40
53274;DHT22;39163;52.696;6.758;2022-07-29T17:07:10;26.70;92.50
53274;DHT22;39163;52.696;6.758;2022-07-29T17:09:36;26.70;92.00
53274;DHT22;39163;52.696;6.758;2022-07-29T17:12:01;26.60;92.20
53274;DHT22;39163;52.696;6.758;2022-07-29T17:14:29;26.60;92.60
53274;DHT22;39163;52.696;6.758;2022-07-29T17:16:59;26.50;92.70
53274;DHT22;39163;52.696;6.758;2022-07-29T17:19:26;26.50;92.30
53274;DHT22;39163;52.696;6.758;2022-07-29T17:21:52;26.40;92.40
53274;DHT22;39163;52.696;6.758;2022-07-29T17:24:18;26.40;92.30
53274;DHT22;39163;52.696;6.758;2022-07-29T17:26:44;26.30;92.80
53274;DHT22;39163;52.696;6.758;2022-07-29T17:29:10;26.20;92.70
53274;DHT22;39163;52.696;6.758;2022-07-29T17:31:36;26.10;92.40
53274;DHT22;39163;52.696;6.758;2022-07-29T17:34:02;26.10;92.30
53274;DHT22;39163;52.696;6.758;2022-07-29T17:36:29;26.00;92.20
53274;DHT22;39163;52.696;6.758;2022-07-29T17:38:58;25.90;92.70
53274;DHT22;39163;52.696;6.758;2022-07-29T17:41:26;25.90;93.00
53274;DHT22;39163;52.696;6.758;2022-07-29T17:43:51;25.80;93.10
53274;DHT22;39163;52.696;6.758;2022-07-29T17:46:19;25.70;92.90
53274;DHT22;39163;52.696;6.758;2022-07-29T17:48:44;25.50;93.10
53274;DHT22;39163;52.696;6.758;2022-07-29T17:51:13;25.50;93.30
53274;DHT22;39163;52.696;6.758;2022-07-29T17:53:39;25.40;93.50
53274;DHT22;39163;52.696;6.758;2022-07-29T17:56:05;25.30;93.50
53274;DHT22;39163;52.696;6.758;2022-07-29T17:58:32;25.20;93.50
53274;DHT22;39163;52.696;6.758;2022-07-29T18:00:58;25.10;93.10
53274;DHT22;39163;52.696;6.758;2022-07-29T18:03:23;24.90;93.60
53274;DHT22;39163;52.696;6.758;2022-07-29T18:05:50;24.70;93.70
53274;DHT22;39163;52.696;6.758;2022-07-29T18:08:17;24.50;94.00
53274;DHT22;39163;52.696;6.758;2022-07-29T18:10:43;24.40;93.90
53274;DHT22;39163;52.696;6.758;2022-07-29T18:13:09;24.30;94.50
53274;DHT22;39163;52.696;6.758;2022-07-29T18:15:38;24.20;94.70
53274;DHT22;39163;52.696;6.758;2022-07-29T18:18:03;24.00;95.10
53274;DHT22;39163;52.696;6.758;2022-07-29T18:20:29;23.90;95.10
53274;DHT22;39163;52.696;6.758;2022-07-29T18:22:55;23.80;94.90
53274;DHT22;39163;52.696;6.758;2022-07-29T18:25:21;23.80;95.20
53274;DHT22;39163;52.696;6.758;2022-07-29T18:27:48;23.70;95.00
53274;DHT22;39163;52.696;6.758;2022-07-29T18:30:14;23.50;95.60
53274;DHT22;39163;52.696;6.758;2022-07-29T18:32:40;23.50;96.00
53274;DHT22;39163;52.696;6.758;2022-07-29T18:35:09;23.40;96.10
53274;DHT22;39163;52.696;6.758;2022-07-29T18:37:35;23.20;95.70
53274;DHT22;39163;52.696;6.758;2022-07-29T18:40:02;23.20;95.80
53274;DHT22;39163;52.696;6.758;2022-07-29T18:42:28;23.10;96.80
53274;DHT22;39163;52.696;6.758;2022-07-29T18:44:54;23.00;97.10
53274;DHT22;39163;52.696;6.758;2022-07-29T18:47:19;22.80;97.40
53274;DHT22;39163;52.696;6.758;2022-07-29T18:49:45;22.70;97.20
53274;DHT22;39163;52.696;6.758;2022-07-29T18:52:11;22.70;97.30
53274;DHT22;39163;52.696;6.758;2022-07-29T18:54:37;22.60;97.50
53274;DHT22;39163;52.696;6.758;2022-07-29T18:57:02;22.50;97.80
53274;DHT22;39163;52.696;6.758;2022-07-29T18:59:37;22.40;98.20
53274;DHT22;39163;52.696;6.758;2022-07-29T19:02:03;22.20;98.80
53274;DHT22;39163;52.696;6.758;2022-07-29T19:04:38;22.10;99.10
53274;DHT22;39163;52.696;6.758;2022-07-29T19:07:03;22.10;99.70
53274;DHT22;39163;52.696;6.758;2022-07-29T19:09:29;21.90;99.80
53274;DHT22;39163;52.696;6.758;2022-07-29T19:11:55;21.80;99.80
53274;DHT22;39163;52.696;6.758;2022-07-29T19:14:24;21.70;99.90
53274;DHT22;39163;52.696;6.758;2022-07-29T19:16:49;21.70;99.90
53274;DHT22;39163;52.696;6.758;2022-07-29T19:19:18;21.50;99.90
53274;DHT22;39163;52.696;6.758;2022-07-29T19:21:44;21.40;99.90
53274;DHT22;39163;52.696;6.758;2022-07-29T19:24:13;21.30;99.90
53274;DHT22;39163;52.696;6.758;2022-07-29T19:26:39;21.20;99.90
53274;DHT22;39163;52.696;6.758;2022-07-29T19:29:11;21.20;99.90
53274;DHT22;39163;52.696;6.758;2022-07-29T19:31:37;21.10;99.90
53274;DHT22;39163;52.696;6.758;2022-07-29T19:34:04;21.00;99.90
53274;DHT22;39163;52.696;6.758;2022-07-29T19:36:30;20.90;99.90
53274;DHT22;39163;52.696;6.758;2022-07-29T19:38:56;20.90;99.90
53274;DHT22;39163;52.696;6.758;2022-07-29T19:41:21;20.80;99.90
53274;DHT22;39163;52.696;6.758;2022-07-29T19:43:50;20.80;99.90
53274;DHT22;39163;52.696;6.758;2022-07-29T19:46:15;20.70;99.90
53274;DHT22;39163;52.696;6.758;2022-07-29T19:48:41;20.50;99.90
53274;DHT22;39163;52.696;6.758;2022-07-29T19:51:07;20.40;99.90
53274;DHT22;39163;52.696;6.758;2022-07-29T19:53:32;20.40;99.90
53274;DHT22;39163;52.696;6.758;2022-07-29T19:55:58;20.30;99.90
53274;DHT22;39163;52.696;6.758;2022-07-29T19:58:24;20.20;99.90
53274;DHT22;39163;52.696;6.758;2022-07-29T20:00:49;20.10;99.90
53274;DHT22;39163;52.696;6.758;2022-07-29T20:03:15;20.10;99.90
53274;DHT22;39163;52.696;6.758;2022-07-29T20:05:41;20.00;99.90
53274;DHT22;39163;52.696;6.758;2022-07-29T20:08:07;19.90;99.90
53274;DHT22;39163;52.696;6.758;2022-07-29T20:10:33;19.90;99.90
53274;DHT22;39163;52.696;6.758;2022-07-29T20:12:59;19.80;99.90
53274;DHT22;39163;52.696;6.758;2022-07-29T20:15:24;19.80;99.90
53274;DHT22;39163;52.696;6.758;2022-07-29T20:17:50;19.70;99.90
53274;DHT22;39163;52.696;6.758;2022-07-29T20:20:16;19.70;99.90
53274;DHT22;39163;52.696;6.758;2022-07-29T20:22:42;19.60;99.90
53274;DHT22;39163;52.696;6.758;2022-07-29T20:25:09;19.60;99.90
53274;DHT22;39163;52.696;6.758;2022-07-29T20:27:36;19.50;99.90
53274;DHT22;39163;52.696;6.758;2022-07-29T20:30:05;19.40;99.90
53274;DHT22;39163;52.696;6.758;2022-07-29T20:32:34;19.40;99.90
53274;DHT22;39163;52.696;6.758;2022-07-29T20:35:00;19.20;99.90
53274;DHT22;39163;52.696;6.758;2022-07-29T20:37:26;19.10;99.90
53274;DHT22;39163;52.696;6.758;2022-07-29T20:39:51;19.10;99.90
53274;DHT22;39163;52.696;6.758;2022-07-29T20:42:20;19.10;99.90
53274;DHT22;39163;52.696;6.758;2022-07-29T20:44:46;19.00;99.90
53274;DHT22;39163;52.696;6.758;2022-07-29T20:47:13;18.90;99.90
53274;DHT22;39163;52.696;6.758;2022-07-29T20:49:40;18.90;99.90
53274;DHT22;39163;52.696;6.758;2022-07-29T20:52:06;18.80;99.90
53274;DHT22;39163;52.696;6.758;2022-07-29T20:54:31;18.70;99.90
53274;DHT22;39163;52.696;6.758;2022-07-29T20:56:57;18.60;99.90
53274;DHT22;39163;52.696;6.758;2022-07-29T20:59:23;18.60;99.90
53274;DHT22;39163;52.696;6.758;2022-07-29T21:01:48;18.50;99.90
53274;DHT22;39163;52.696;6.758;2022-07-29T21:04:14;18.50;99.90
53274;DHT22;39163;52.696;6.758;2022-07-29T21:06:44;18.50;99.90
53274;DHT22;39163;52.696;6.758;2022-07-29T21:09:09;18.40;99.90
53274;DHT22;39163;52.696;6.758;2022-07-29T21:11:35;18.40;99.90
53274;DHT22;39163;52.696;6.758;2022-07-29T21:14:01;18.40;99.90
53274;DHT22;39163;52.696;6.758;2022-07-29T21:16:28;18.30;99.90
53274;DHT22;39163;52.696;6.758;2022-07-29T21:18:58;18.20;99.90
53274;DHT22;39163;52.696;6.758;2022-07-29T21:21:27;18.10;99.90
53274;DHT22;39163;52.696;6.758;2022-07-29T21:24:05;18.00;99.90
53274;DHT22;39163;52.696;6.758;2022-07-29T21:26:31;18.00;99.90
53274;DHT22;39163;52.696;6.758;2022-07-29T21:29:00;17.90;99.90
53274;DHT22;39163;52.696;6.758;2022-07-29T21:31:26;18.00;99.90
53274;DHT22;39163;52.696;6.758;2022-07-29T21:33:52;18.00;99.90
53274;DHT22;39163;52.696;6.758;2022-07-29T21:36:19;18.00;99.90
53274;DHT22;39163;52.696;6.758;2022-07-29T21:38:56;17.90;99.90
53274;DHT22;39163;52.696;6.758;2022-07-29T21:41:57;17.90;99.90
53274;DHT22;39163;52.696;6.758;2022-07-29T21:44:33;17.80;99.90
53274;DHT22;39163;52.696;6.758;2022-07-29T21:47:03;17.80;99.90
53274;DHT22;39163;52.696;6.758;2022-07-29T21:49:30;17.80;99.90
53274;DHT22;39163;52.696;6.758;2022-07-29T21:51:58;17.80;99.90
53274;DHT22;39163;52.696;6.758;2022-07-29T21:54:24;17.70;99.90
53274;DHT22;39163;52.696;6.758;2022-07-29T21:56:53;17.70;99.90
53274;DHT22;39163;52.696;6.758;2022-07-29T21:59:21;17.70;99.90
53274;DHT22;39163;52.696;6.758;2022-07-29T22:01:49;17.60;99.90
53274;DHT22;39163;52.696;6.758;2022-07-29T22:04:15;17.60;99.90
53274;DHT22;39163;52.696;6.758;2022-07-29T22:06:41;17.60;99.90
53274;DHT22;39163;52.696;6.758;2022-07-29T22:09:07;17.50;99.90
53274;DHT22;39163;52.696;6.758;2022-07-29T22:11:32;17.50;99.90
53274;DHT22;39163;52.696;6.758;2022-07-29T22:14:00;17.40;99.90
53274;DHT22;39163;52.696;6.758;2022-07-29T22:16:26;17.40;99.90
53274;DHT22;39163;52.696;6.758;2022-07-29T22:18:55;17.40;99.90
53274;DHT22;39163;52.696;6.758;2022-07-29T22:21:20;17.30;99.90
53274;DHT22;39163;52.696;6.758;2022-07-29T22:23:46;17.20;99.90
53274;DHT22;39163;52.696;6.758;2022-07-29T22:26:12;17.20;99.90
53274;DHT22;39163;52.696;6.758;2022-07-29T22:28:37;17.20;99.90
53274;DHT22;39163;52.696;6.758;2022-07-29T22:31:03;17.10;99.90
53274;DHT22;39163;52.696;6.758;2022-07-29T22:33:29;17.10;99.90
53274;DHT22;39163;52.696;6.758;2022-07-29T22:36:39;17.20;99.90
53274;DHT22;39163;52.696;6.758;2022-07-29T22:39:46;17.10;99.90
53274;DHT22;39163;52.696;6.758;2022-07-29T22:46:01;17.00;99.90
53274;DHT22;39163;52.696;6.758;2022-07-29T22:48:44;16.80;99.90
53274;DHT22;39163;52.696;6.758;2022-07-29T22:51:34;16.70;99.90
53274;DHT22;39163;52.696;6.758;2022-07-29T23:07:49;16.50;99.90
53274;DHT22;39163;52.696;6.758;2022-07-29T23:17:19;16.20;99.90
53274;DHT22;39163;52.696;6.758;2022-07-29T23:20:33;16.20;99.90
53274;DHT22;39163;52.696;6.758;2022-07-29T23:23:30;16.20;99.90
53274;DHT22;39163;52.696;6.758;2022-07-29T23:26:39;16.20;99.90
53274;DHT22;39163;52.696;6.758;2022-07-29T23:29:08;16.20;99.90
53274;DHT22;39163;52.696;6.758;2022-07-29T23:31:34;16.20;99.90
53274;DHT22;39163;52.696;6.758;2022-07-29T23:34:01;16.20;99.90
53274;DHT22;39163;52.696;6.758;2022-07-29T23:36:27;16.00;99.90
53274;DHT22;39163;52.696;6.758;2022-07-29T23:38:53;15.90;99.90
53274;DHT22;39163;52.696;6.758;2022-07-29T23:41:23;15.80;99.90
53274;DHT22;39163;52.696;6.758;2022-07-29T23:43:52;15.70;99.90
53274;DHT22;39163;52.696;6.758;2022-07-29T23:46:18;15.50;99.90
53274;DHT22;39163;52.696;6.758;2022-07-29T23:48:44;15.40;99.90
53274;DHT22;39163;52.696;6.758;2022-07-29T23:51:09;15.40;99.90
53274;DHT22;39163;52.696;6.758;2022-07-29T23:53:41;15.30;99.90
53274;DHT22;39163;52.696;6.758;2022-07-29T23:56:07;15.30;99.90
53274;DHT22;39163;52.696;6.758;2022-07-29T23:58:36;15.20;99.90
